Time;durP1;ratioP1;P1;durP2;ratioP2;P2;SDS_P1;SDS_P2;PMS_P1;PMS_P2;Temp;Humidity;BMP_temperature;BMP_pressure;BME280_temperature;BME280_humidity;BME280_pressure;Samples;Min_cycle;Max_cycle;Signal;HPM_P1;HPM_P2
2022/08/18 00:00:44;;;;;;;6.30;4.50;;;;;;;;;;10425817;28;20112;-73
2022/08/18 00:05:44;;;;;;;5.33;4.30;;;;;;;;;;10421052;28;20031;-75
2022/08/18 00:10:44;;;;;;;8.37;4.40;;;;;;;;;;10408746;28;20047;-73
2022/08/18 00:15:45;;;;;;;7.27;4.43;;;;;;;;;;10409042;28;20013;-73
2022/08/18 00:20:45;;;;;;;7.68;4.60;;;;;;;;;;10424022;28;20091;-77
2022/08/18 00:25:46;;;;;;;14.05;4.88;;;;;;;;;;10418275;28;20028;-78
2022/08/18 00:30:46;;;;;;;9.00;4.88;;;;;;;;;;10390965;28;20013;-73
2022/08/18 00:35:46;;;;;;;6.05;4.32;;;;;;;;;;10406546;28;20485;-77
2022/08/18 00:40:50;;;;;;;7.93;5.07;;;;;;;;;;10407944;28;20398;-73
2022/08/18 00:45:51;;;;;;;7.68;4.82;;;;;;;;;;10424094;28;20022;-79
2022/08/18 00:50:51;;;;;;;10.32;4.75;;;;;;;;;;10409411;28;20017;-72
2022/08/18 00:55:52;;;;;;;11.77;5.47;;;;;;;;;;10431869;28;20022;-72
2022/08/18 01:00:53;;;;;;;7.68;5.30;;;;;;;;;;10436397;28;20129;-75
2022/08/18 01:05:53;;;;;;;10.82;5.88;;;;;;;;;;10406642;28;20021;-78
2022/08/18 01:10:54;;;;;;;17.42;5.72;;;;;;;;;;10404930;28;20104;-75
2022/08/18 01:15:55;;;;;;;9.15;5.65;;;;;;;;;;10407104;28;20550;-77
2022/08/18 01:26:27;;;;;;;7.90;5.25;;;;;;;;;;10404702;28;20029;-76
2022/08/18 01:31:33;;;;;;;7.38;5.15;;;;;;;;;;10407877;28;20025;-73
2022/08/18 01:36:36;;;;;;;7.18;5.50;;;;;;;;;;10403606;28;20511;-72
2022/08/18 01:41:37;;;;;;;10.50;5.90;;;;;;;;;;10405654;28;20064;-76
2022/08/18 01:46:40;;;;;;;11.57;6.20;;;;;;;;;;10405395;28;20017;-74
2022/08/18 01:51:41;;;;;;;10.52;6.22;;;;;;;;;;10403814;28;20028;-77
2022/08/18 01:56:41;;;;;;;8.73;5.68;;;;;;;;;;10406732;28;20450;-74
2022/08/18 02:01:43;;;;;;;15.40;6.35;;;;;;;;;;10425026;28;20110;-73
2022/08/18 02:06:43;;;;;;;8.23;4.95;;;;;;;;;;10403837;28;20091;-76
2022/08/18 02:11:44;;;;;;;10.80;5.90;;;;;;;;;;10404004;28;20018;-74
2022/08/18 02:16:44;;;;;;;8.68;6.18;;;;;;;;;;10419097;28;20108;-77
2022/08/18 02:21:44;;;;;;;7.80;5.97;;;;;;;;;;10417784;28;20410;-76
2022/08/18 02:26:45;;;;;;;10.47;6.20;;;;;;;;;;10430796;28;20025;-80
2022/08/18 02:31:45;;;;;;;15.95;8.77;;;;;;;;;;10428910;28;20024;-75
2022/08/18 02:36:45;;;;;;;10.63;6.57;;;;;;;;;;10429335;28;20115;-75
2022/08/18 02:41:45;;;;;;;9.83;6.00;;;;;;;;;;10410258;28;20501;-76
2022/08/18 02:46:50;;;;;;;11.93;6.87;;;;;;;;;;10413289;28;20024;-75
2022/08/18 02:51:52;;;;;;;10.88;6.75;;;;;;;;;;10428400;28;20017;-75
2022/08/18 02:56:53;;;;;;;12.27;7.03;;;;;;;;;;10410321;28;20033;-73
2022/08/18 03:01:54;;;;;;;8.40;6.28;;;;;;;;;;10425333;28;20025;-77
2022/08/18 03:06:55;;;;;;;10.27;6.65;;;;;;;;;;10425704;28;20176;-77
2022/08/18 03:11:55;;;;;;;12.98;6.05;;;;;;;;;;10412064;28;20024;-74
2022/08/18 03:16:56;;;;;;;11.30;6.43;;;;;;;;;;10391110;28;20026;-76
2022/08/18 03:21:58;;;;;;;10.73;7.03;;;;;;;;;;10411206;28;20121;-76
2022/08/18 03:26:58;;;;;;;15.70;7.50;;;;;;;;;;10404038;28;20037;-76
2022/08/18 03:32:00;;;;;;;20.02;7.40;;;;;;;;;;10407412;28;20487;-75
2022/08/18 03:37:00;;;;;;;10.13;6.63;;;;;;;;;;10408946;28;20056;-74
2022/08/18 03:42:00;;;;;;;10.20;6.88;;;;;;;;;;10410149;28;20029;-74
2022/08/18 03:47:02;;;;;;;9.65;7.25;;;;;;;;;;10390985;28;20372;-73
2022/08/18 03:52:04;;;;;;;11.15;7.35;;;;;;;;;;10407976;28;20524;-74
2022/08/18 03:57:06;;;;;;;10.05;7.72;;;;;;;;;;10409708;28;20138;-74
2022/08/18 04:02:07;;;;;;;10.93;7.75;;;;;;;;;;10409781;28;20029;-74
2022/08/18 04:07:08;;;;;;;10.93;7.30;;;;;;;;;;10405333;28;20033;-74
2022/08/18 04:12:12;;;;;;;9.60;7.50;;;;;;;;;;10424452;28;20014;-80
2022/08/18 04:17:13;;;;;;;15.25;7.57;;;;;;;;;;10423814;28;20472;-76
2022/08/18 04:22:14;;;;;;;13.18;7.35;;;;;;;;;;10407394;28;20034;-74
2022/08/18 04:27:14;;;;;;;11.35;7.32;;;;;;;;;;10388373;28;20026;-81
2022/08/18 04:32:15;;;;;;;13.40;7.38;;;;;;;;;;10406509;28;20026;-77
2022/08/18 04:37:16;;;;;;;13.35;7.75;;;;;;;;;;10421478;28;20469;-76
2022/08/18 04:42:16;;;;;;;12.75;8.10;;;;;;;;;;10412636;28;20517;-77
2022/08/18 04:47:16;;;;;;;10.98;7.95;;;;;;;;;;10406451;28;20140;-73
2022/08/18 04:57:35;;;;;;;16.30;8.38;;;;;;;;;;10408991;28;20033;-76
2022/08/18 05:02:35;;;;;;;16.00;8.13;;;;;;;;;;10422455;28;20021;-73
2022/08/18 05:07:43;;;;;;;15.07;8.20;;;;;;;;;;10420803;28;20022;-75
2022/08/18 05:12:45;;;;;;;10.88;8.02;;;;;;;;;;10425174;28;20027;-81
2022/08/18 05:17:45;;;;;;;17.65;7.68;;;;;;;;;;10424150;28;20117;-78
2022/08/18 05:22:46;;;;;;;14.00;7.80;;;;;;;;;;10406094;28;20018;-79
2022/08/18 05:27:46;;;;;;;14.40;6.80;;;;;;;;;;10405617;28;20421;-74
2022/08/18 05:32:46;;;;;;;15.65;7.68;;;;;;;;;;10402422;28;20140;-75
2022/08/18 05:38:00;;;;;;;8.23;6.38;;;;;;;;;;10404181;28;20029;-78
2022/08/18 05:43:02;;;;;;;7.97;5.90;;;;;;;;;;10418204;28;20499;-80
2022/08/18 05:48:02;;;;;;;10.50;6.03;;;;;;;;;;10403008;28;20104;-73
2022/08/18 05:53:06;;;;;;;13.18;5.68;;;;;;;;;;10406982;28;20389;-77
2022/08/18 05:58:09;;;;;;;12.32;5.75;;;;;;;;;;10405170;28;20455;-71
2022/08/18 06:03:16;;;;;;;11.35;5.07;;;;;;;;;;10405429;28;20077;-73
2022/08/18 06:08:17;;;;;;;19.55;4.93;;;;;;;;;;10402213;28;20064;-75
2022/08/18 06:13:18;;;;;;;9.73;4.60;;;;;;;;;;10404344;28;20037;-75
2022/08/18 06:18:22;;;;;;;11.00;4.63;;;;;;;;;;10405076;28;20022;-75
2022/08/18 06:23:26;;;;;;;11.60;4.82;;;;;;;;;;10420560;28;20025;-74
2022/08/18 06:28:34;;;;;;;10.52;4.90;;;;;;;;;;10402088;28;20096;-74
2022/08/18 06:33:40;;;;;;;8.30;5.40;;;;;;;;;;10399581;28;20048;-75
2022/08/18 06:38:44;;;;;;;11.32;5.15;;;;;;;;;;10405646;28;20020;-76
2022/08/18 06:44:03;;;;;;;9.10;5.00;;;;;;;;;;10399206;28;20025;-72
2022/08/18 06:49:05;;;;;;;9.70;4.90;;;;;;;;;;10400213;28;20033;-73
2022/08/18 06:54:07;;;;;;;8.43;4.90;;;;;;;;;;10404064;28;20017;-75
2022/08/18 06:59:15;;;;;;;10.52;4.30;;;;;;;;;;10405239;28;20028;-80
2022/08/18 07:04:34;;;;;;;9.77;4.82;;;;;;;;;;10403569;28;20431;-76
2022/08/18 07:09:34;;;;;;;8.75;4.78;;;;;;;;;;10410662;28;20502;-72
2022/08/18 07:14:42;;;;;;;10.30;4.35;;;;;;;;;;10419209;28;20021;-76
2022/08/18 07:19:42;;;;;;;9.32;3.88;;;;;;;;;;10406703;28;20025;-76
2022/08/18 07:24:43;;;;;;;16.88;4.57;;;;;;;;;;10408616;28;20017;-73
2022/08/18 07:30:04;;;;;;;6.75;3.20;;;;;;;;;;10406837;28;20386;-73
2022/08/18 07:35:07;;;;;;;7.38;3.13;;;;;;;;;;10407114;28;20568;-73
2022/08/18 07:40:20;;;;;;;9.98;3.00;;;;;;;;;;10421337;28;20028;-73
2022/08/18 07:45:23;;;;;;;9.38;3.28;;;;;;;;;;10404827;28;20028;-77
2022/08/18 07:50:26;;;;;;;6.50;2.92;;;;;;;;;;10408193;28;20091;-78
2022/08/18 07:55:29;;;;;;;8.10;3.33;;;;;;;;;;10390265;28;20021;-73
2022/08/18 08:01:08;;;;;;;3.92;2.40;;;;;;;;;;10403316;28;20030;-78
2022/08/18 08:06:20;;;;;;;9.15;3.47;;;;;;;;;;10256339;28;20126;-78
2022/08/18 08:11:21;;;;;;;7.28;3.78;;;;;;;;;;10381360;28;20033;-78
2022/08/18 08:16:35;;;;;;;9.52;3.28;;;;;;;;;;10422197;28;20091;-78
2022/08/18 08:21:39;;;;;;;3.35;2.33;;;;;;;;;;10421409;28;20079;-78
2022/08/18 08:26:43;;;;;;;5.07;2.92;;;;;;;;;;10404655;28;20029;-78
2022/08/18 08:31:48;;;;;;;9.20;2.93;;;;;;;;;;10422778;28;20026;-78
2022/08/18 08:36:51;;;;;;;6.32;2.92;;;;;;;;;;10421770;28;20045;-78
2022/08/18 08:41:54;;;;;;;5.90;2.15;;;;;;;;;;10415181;28;20087;-78
2022/08/18 08:46:58;;;;;;;3.83;2.47;;;;;;;;;;10418570;28;20028;-79
2022/08/18 08:51:59;;;;;;;;;;;;;;;;;;10405514;28;20120;-78
2022/08/18 08:57:00;;;;;;;6.53;2.58;;;;;;;;;;10422119;28;19909;-78
2022/08/18 09:02:10;;;;;;;2.55;2.30;;;;;;;;;;10422519;28;20143;-77
2022/08/18 09:07:11;;;;;;;3.75;2.22;;;;;;;;;;10400973;28;20032;-78
2022/08/18 09:12:30;;;;;;;5.93;2.72;;;;;;;;;;10421644;28;20025;-78
2022/08/18 09:17:36;;;;;;;4.43;2.10;;;;;;;;;;10410732;28;20471;-78
2022/08/18 09:22:59;;;;;;;3.22;2.40;;;;;;;;;;10419017;28;20079;-76
2022/08/18 09:28:38;;;;;;;4.13;2.15;;;;;;;;;;10414928;28;20503;-78
2022/08/18 09:33:43;;;;;;;2.53;2.08;;;;;;;;;;10404326;28;20076;-77
2022/08/18 09:44:41;;;;;;;9.25;2.50;;;;;;;;;;10406164;28;20033;-78
2022/08/18 09:49:52;;;;;;;3.13;1.70;;;;;;;;;;10396216;28;20037;-78
2022/08/18 09:54:59;;;;;;;6.22;2.45;;;;;;;;;;10418001;28;20026;-77
2022/08/18 10:00:02;;;;;;;5.28;1.83;;;;;;;;;;10403999;28;20022;-79
2022/08/18 10:05:15;;;;;;;5.00;1.58;;;;;;;;;;10423020;28;20036;-77
2022/08/18 10:10:36;;;;;;;4.80;1.73;;;;;;;;;;10404955;28;20106;-78
2022/08/18 10:15:50;;;;;;;3.25;2.15;;;;;;;;;;10402746;28;20112;-77
2022/08/18 10:21:06;;;;;;;3.70;2.50;;;;;;;;;;10410407;28;20059;-77
2022/08/18 10:26:26;;;;;;;7.05;1.92;;;;;;;;;;10394087;28;20515;-76
2022/08/18 10:31:28;;;;;;;3.78;1.85;;;;;;;;;;10396969;28;20036;-79
2022/08/18 10:36:45;;;;;;;2.13;1.77;;;;;;;;;;10399293;28;20445;-77
2022/08/18 10:41:49;;;;;;;4.57;2.13;;;;;;;;;;10398137;28;20029;-78
2022/08/18 10:46:51;;;;;;;5.50;1.73;;;;;;;;;;10399350;28;20037;-75
2022/08/18 10:51:52;;;;;;;2.92;1.63;;;;;;;;;;10401650;28;20273;-76
2022/08/18 10:56:54;;;;;;;7.20;1.77;;;;;;;;;;10404068;28;20033;-73
2022/08/18 11:01:54;;;;;;;4.05;2.00;;;;;;;;;;10403059;28;20276;-74
2022/08/18 11:07:01;;;;;;;4.70;2.08;;;;;;;;;;10423427;28;20479;-76
2022/08/18 11:12:03;;;;;;;5.13;1.85;;;;;;;;;;10418924;28;20109;-76
2022/08/18 11:17:09;;;;;;;3.67;2.22;;;;;;;;;;10418871;28;20083;-77
2022/08/18 11:22:25;;;;;;;3.17;2.05;;;;;;;;;;10400527;28;20029;-72
2022/08/18 11:27:27;;;;;;;12.73;2.30;;;;;;;;;;10407001;28;20053;-77
2022/08/18 11:32:30;;;;;;;3.47;2.58;;;;;;;;;;10404179;28;20029;-77
2022/08/18 11:37:42;;;;;;;7.20;2.55;;;;;;;;;;10405502;28;20039;-78
2022/08/18 11:42:49;;;;;;;4.03;2.88;;;;;;;;;;10402906;28;20403;-75
2022/08/18 11:48:08;;;;;;;4.13;2.88;;;;;;;;;;10406080;28;20090;-77
2022/08/18 11:53:21;;;;;;;5.10;2.88;;;;;;;;;;10407962;28;20017;-78
2022/08/18 11:58:43;;;;;;;4.40;2.58;;;;;;;;;;10419084;28;20155;-77
2022/08/18 12:03:47;;;;;;;5.13;3.20;;;;;;;;;;10403003;28;20042;-77
2022/08/18 12:08:50;;;;;;;3.83;3.28;;;;;;;;;;10420394;28;20736;-78
2022/08/18 12:13:56;;;;;;;5.93;2.85;;;;;;;;;;10420289;28;20369;-76
2022/08/18 12:18:57;;;;;;;5.47;3.03;;;;;;;;;;10410697;28;20033;-77
2022/08/18 12:23:57;;;;;;;7.55;2.97;;;;;;;;;;10421086;28;20048;-77
2022/08/18 12:28:58;;;;;;;5.00;2.70;;;;;;;;;;10400847;28;20714;-77
2022/08/18 12:33:58;;;;;;;10.05;3.17;;;;;;;;;;10418424;28;20542;-76
2022/08/18 12:38:58;;;;;;;3.40;2.75;;;;;;;;;;10420260;28;20509;-80
2022/08/18 12:43:58;;;;;;;6.45;3.20;;;;;;;;;;10399266;28;20029;-78
2022/08/18 12:49:00;;;;;;;3.38;2.83;;;;;;;;;;10402305;28;20029;-77
2022/08/18 12:54:00;;;;;;;3.47;2.60;;;;;;;;;;10415228;28;20025;-79
2022/08/18 12:59:01;;;;;;;9.93;3.78;;;;;;;;;;10416369;28;20037;-80
2022/08/18 13:04:02;;;;;;;2.75;2.25;;;;;;;;;;10400231;28;20029;-78
2022/08/18 13:09:03;;;;;;;5.50;2.97;;;;;;;;;;10416800;28;20021;-80
2022/08/18 13:14:03;;;;;;;4.13;2.90;;;;;;;;;;10399363;28;20129;-76
2022/08/18 13:19:04;;;;;;;3.17;2.55;;;;;;;;;;10421053;28;20017;-76
2022/08/18 13:24:04;;;;;;;3.72;2.80;;;;;;;;;;10421055;28;20562;-78
2022/08/18 13:29:04;;;;;;;6.63;3.33;;;;;;;;;;10418825;28;20475;-76
2022/08/18 13:34:08;;;;;;;5.40;3.13;;;;;;;;;;10412516;28;20099;-79
2022/08/18 13:39:10;;;;;;;4.93;3.17;;;;;;;;;;10418038;28;20037;-78
2022/08/18 13:44:13;;;;;;;3.92;3.10;;;;;;;;;;10399003;28;20087;-76
2022/08/18 13:49:14;;;;;;;4.30;3.08;;;;;;;;;;10419510;28;20288;-77
2022/08/18 13:54:19;;;;;;;6.47;3.42;;;;;;;;;;10404858;28;20109;-79
2022/08/18 13:59:20;;;;;;;5.22;3.10;;;;;;;;;;10427435;28;20087;-78
2022/08/18 14:04:20;;;;;;;9.10;3.60;;;;;;;;;;10420348;28;20029;-77
2022/08/18 14:09:21;;;;;;;6.03;3.38;;;;;;;;;;10420269;28;20377;-78
2022/08/18 14:14:22;;;;;;;4.40;3.20;;;;;;;;;;10403982;28;20079;-78
2022/08/18 14:30:03;;;;;;;4.75;3.15;;;;;;;;;;10423598;28;20109;-78
2022/08/18 14:35:05;;;;;;;7.93;3.40;;;;;;;;;;10427439;28;20045;-78
2022/08/18 14:40:06;;;;;;;6.80;4.13;;;;;;;;;;10416437;28;20107;-77
2022/08/18 14:45:07;;;;;;;19.00;13.68;;;;;;;;;;10435333;28;20614;-78
2022/08/18 14:50:11;;;;;;;4.90;3.80;;;;;;;;;;10432013;28;20383;-77
2022/08/18 14:55:12;;;;;;;9.57;4.10;;;;;;;;;;10417798;28;20336;-78
2022/08/18 15:00:17;;;;;;;8.77;6.07;;;;;;;;;;10433583;28;20474;-79
2022/08/18 15:05:17;;;;;;;3.78;3.20;;;;;;;;;;10408069;28;20435;-78
2022/08/18 15:10:17;;;;;;;6.20;4.72;;;;;;;;;;10412161;28;20025;-77
2022/08/18 15:15:17;;;;;;;14.98;8.68;;;;;;;;;;10414837;28;20358;-78
2022/08/18 15:20:18;;;;;;;4.93;3.67;;;;;;;;;;10433450;28;20463;-78
2022/08/18 15:30:38;;;;;;;5.68;3.88;;;;;;;;;;10406380;28;20021;-77
2022/08/18 15:35:39;;;;;;;5.50;4.43;;;;;;;;;;10403773;28;20745;-72
2022/08/18 15:40:47;;;;;;;12.10;5.97;;;;;;;;;;10397177;28;20431;-75
2022/08/18 15:45:48;;;;;;;18.27;6.78;;;;;;;;;;10422741;28;20080;-73
2022/08/18 15:50:49;;;;;;;6.13;3.95;;;;;;;;;;10408124;28;20059;-76
2022/08/18 15:55:49;;;;;;;6.95;4.32;;;;;;;;;;10407081;28;20021;-76
2022/08/18 16:00:51;;;;;;;6.70;4.27;;;;;;;;;;10410854;28;20022;-79
2022/08/18 16:05:53;;;;;;;5.47;4.05;;;;;;;;;;10419883;28;20029;-78
2022/08/18 16:10:54;;;;;;;8.77;4.53;;;;;;;;;;10404377;28;20021;-73
2022/08/18 16:15:55;;;;;;;7.18;4.38;;;;;;;;;;10414817;28;20167;-76
2022/08/18 16:21:01;;;;;;;5.78;4.50;;;;;;;;;;10404761;28;20096;-74
2022/08/18 16:26:01;;;;;;;7.95;4.38;;;;;;;;;;10403375;28;20040;-77
2022/08/18 16:31:02;;;;;;;6.43;4.77;;;;;;;;;;10417969;28;20035;-77
2022/08/18 16:36:04;;;;;;;6.43;4.30;;;;;;;;;;10404007;28;20061;-77
2022/08/18 16:41:08;;;;;;;5.82;4.43;;;;;;;;;;10411815;28;20477;-78
2022/08/18 16:46:10;;;;;;;8.05;5.53;;;;;;;;;;10400949;28;20523;-78
2022/08/18 16:51:12;;;;;;;6.57;5.72;;;;;;;;;;10442110;23;20061;-78
2022/08/18 16:56:17;;;;;;;10.63;4.18;;;;;;;;;;10436322;28;20033;-77
2022/08/18 17:06:36;;;;;;;5.43;4.30;;;;;;;;;;10407805;28;20033;-78
2022/08/18 17:11:38;;;;;;;9.95;5.20;;;;;;;;;;10399333;28;20072;-73
2022/08/18 17:16:38;;;;;;;7.18;4.85;;;;;;;;;;10417737;28;20079;-73
2022/08/18 17:21:39;;;;;;;10.93;5.03;;;;;;;;;;10419513;28;20453;-77
2022/08/18 17:26:58;;;;;;;20.27;5.63;;;;;;;;;;10420502;28;20029;-78
2022/08/18 17:32:02;;;;;;;16.35;5.25;;;;;;;;;;10401871;28;20048;-78
2022/08/18 17:37:06;;;;;;;6.72;4.88;;;;;;;;;;10419855;28;20025;-73
2022/08/18 17:42:25;;;;;;;12.93;5.53;;;;;;;;;;10390408;28;20025;-79
2022/08/18 17:47:28;;;;;;;11.93;5.40;;;;;;;;;;10394111;28;20030;-77
2022/08/18 17:52:31;;;;;;;9.65;5.75;;;;;;;;;;10396964;28;20041;-78
2022/08/18 17:57:32;;;;;;;12.35;6.03;;;;;;;;;;10394966;28;20787;-77
2022/08/18 18:02:32;;;;;;;10.80;4.70;;;;;;;;;;10397265;28;20041;-77
2022/08/18 18:07:38;;;;;;;7.18;4.80;;;;;;;;;;10397115;28;20495;-72
2022/08/18 18:12:39;;;;;;;9.13;5.13;;;;;;;;;;10413593;28;20087;-71
2022/08/18 18:17:41;;;;;;;7.70;4.40;;;;;;;;;;10400779;28;20044;-78
2022/08/18 18:22:41;;;;;;;11.38;5.15;;;;;;;;;;10396586;28;20483;-78
2022/08/18 18:27:43;;;;;;;14.25;5.60;;;;;;;;;;10397177;28;20033;-73
2022/08/18 18:32:47;;;;;;;9.52;4.85;;;;;;;;;;10383512;28;20022;-77
2022/08/18 18:37:47;;;;;;;9.90;5.40;;;;;;;;;;10391960;28;20026;-76
2022/08/18 18:42:48;;;;;;;9.55;5.45;;;;;;;;;;10393228;28;20021;-73
2022/08/18 18:47:53;;;;;;;12.13;6.20;;;;;;;;;;10395156;28;20030;-76
2022/08/18 18:52:59;;;;;;;12.50;6.10;;;;;;;;;;10395374;28;20349;-76
2022/08/18 18:58:06;;;;;;;9.60;6.25;;;;;;;;;;10394926;28;20068;-80
2022/08/18 19:03:15;;;;;;;9.40;6.23;;;;;;;;;;10403200;28;20028;-79
2022/08/18 19:08:19;;;;;;;13.23;5.63;;;;;;;;;;10402881;28;20410;-76
2022/08/18 19:13:24;;;;;;;11.30;5.70;;;;;;;;;;10407450;28;20124;-78
2022/08/18 19:18:26;;;;;;;10.52;5.82;;;;;;;;;;10405060;28;20112;-76
2022/08/18 19:23:30;;;;;;;8.75;6.30;;;;;;;;;;10400551;28;20029;-76
2022/08/18 19:28:33;;;;;;;8.90;5.72;;;;;;;;;;10406585;28;20090;-77
2022/08/18 19:33:45;;;;;;;15.52;5.40;;;;;;;;;;10405252;28;20403;-76
2022/08/18 19:38:52;;;;;;;11.68;6.15;;;;;;;;;;10402080;28;20064;-76
2022/08/18 19:44:28;;;;;;;6.40;4.73;;;;;;;;;;10402652;28;20494;-79
2022/08/18 19:49:45;;;;;;;8.98;4.43;;;;;;;;;;10339948;28;20330;-78
2022/08/18 19:54:58;;;;;;;7.53;3.80;;;;;;;;;;10404671;28;20025;-72
2022/08/18 20:00:09;;;;;;;8.00;3.53;;;;;;;;;;10404149;28;20025;-77
2022/08/18 20:05:12;;;;;;;3.75;3.08;;;;;;;;;;10403628;28;20025;-77
2022/08/18 20:10:45;;;;;;;8.68;3.63;;;;;;;;;;10403309;28;20036;-78
2022/08/18 20:16:10;;;;;;;5.75;3.85;;;;;;;;;;10379075;28;20175;-76
2022/08/18 20:21:14;;;;;;;4.93;3.70;;;;;;;;;;10403454;28;20025;-76
2022/08/18 20:26:33;;;;;;;9.23;3.80;;;;;;;;;;10404486;28;20021;-76
2022/08/18 20:31:48;;;;;;;8.77;3.47;;;;;;;;;;10403869;28;20052;-77
2022/08/18 20:36:50;;;;;;;13.10;3.50;;;;;;;;;;10404120;28;20470;-76
2022/08/18 20:41:51;;;;;;;6.07;3.55;;;;;;;;;;10403640;28;20108;-78
2022/08/18 20:47:01;;;;;;;5.22;3.85;;;;;;;;;;10399343;28;20081;-79
2022/08/18 20:52:12;;;;;;;4.72;3.95;;;;;;;;;;10402345;28;20039;-82
2022/08/18 20:57:13;;;;;;;4.45;3.63;;;;;;;;;;10401907;28;20059;-77
2022/08/18 21:02:25;;;;;;;8.32;3.83;;;;;;;;;;10401016;28;20025;-79
2022/08/18 21:07:27;;;;;;;5.25;3.65;;;;;;;;;;10404833;28;20562;-78
2022/08/18 21:12:28;;;;;;;7.22;3.88;;;;;;;;;;10400451;28;20443;-80
2022/08/18 21:17:29;;;;;;;5.80;4.05;;;;;;;;;;10400734;28;20022;-76
2022/08/18 21:22:29;;;;;;;5.05;4.35;;;;;;;;;;10402420;28;20029;-77
2022/08/18 21:27:34;;;;;;;6.63;4.47;;;;;;;;;;10404462;28;20021;-77
2022/08/18 21:32:36;;;;;;;12.07;4.75;;;;;;;;;;10408444;28;20801;-75
2022/08/18 21:37:39;;;;;;;7.32;4.60;;;;;;;;;;10402128;28;20034;-75
2022/08/18 21:42:42;;;;;;;11.65;4.43;;;;;;;;;;10402968;28;20021;-77
2022/08/18 21:48:02;;;;;;;5.50;4.20;;;;;;;;;;10397077;28;20025;-74
2022/08/18 21:53:04;;;;;;;7.65;4.85;;;;;;;;;;10398644;28;20037;-77
2022/08/18 21:58:08;;;;;;;6.80;4.82;;;;;;;;;;10405925;28;20065;-78
2022/08/18 22:03:09;;;;;;;8.70;5.28;;;;;;;;;;10405789;28;20114;-77
2022/08/18 22:08:18;;;;;;;8.57;5.10;;;;;;;;;;10403778;28;20036;-80
2022/08/18 22:18:40;;;;;;;10.23;5.85;;;;;;;;;;10415448;28;20038;-76
2022/08/18 22:29:18;;;;;;;10.27;5.35;;;;;;;;;;10406980;28;20411;-73
2022/08/18 22:34:20;;;;;;;14.02;5.60;;;;;;;;;;10414688;28;20025;-74
2022/08/18 22:39:36;;;;;;;8.68;4.93;;;;;;;;;;10412024;28;20021;-76
2022/08/18 22:44:37;;;;;;;7.95;5.63;;;;;;;;;;10394552;28;20104;-73
2022/08/18 22:49:37;;;;;;;9.77;5.25;;;;;;;;;;10411923;28;20059;-77
2022/08/18 22:54:38;;;;;;;8.18;5.45;;;;;;;;;;10411723;28;20120;-77
2022/08/18 22:59:39;;;;;;;9.13;5.93;;;;;;;;;;10418792;28;20028;-78
2022/08/18 23:04:40;;;;;;;9.15;5.88;;;;;;;;;;10414094;28;20445;-76
2022/08/18 23:09:41;;;;;;;9.05;6.43;;;;;;;;;;10410189;28;20087;-82
2022/08/18 23:14:44;;;;;;;10.85;5.57;;;;;;;;;;10412597;28;20026;-76
2022/08/18 23:19:45;;;;;;;8.23;5.07;;;;;;;;;;10415262;28;20167;-73
2022/08/18 23:24:47;;;;;;;9.02;5.40;;;;;;;;;;10410889;28;20036;-75
2022/08/18 23:29:47;;;;;;;7.88;5.70;;;;;;;;;;10411281;28;20067;-82
2022/08/18 23:34:47;;;;;;;9.10;4.57;;;;;;;;;;10409596;28;20108;-75
2022/08/18 23:39:48;;;;;;;8.13;5.75;;;;;;;;;;10413915;28;20029;-78
2022/08/18 23:44:48;;;;;;;9.02;5.45;;;;;;;;;;10414067;28;20052;-75
2022/08/18 23:49:50;;;;;;;10.20;5.65;;;;;;;;;;10416351;28;20060;-76
2022/08/18 23:54:50;;;;;;;6.32;5.65;;;;;;;;;;10403682;28;20024;-79
2022/08/18 23:59:50;;;;;;;7.10;5.32;;;;;;;;;;10413383;28;20457;-75
